Time;durP1;ratioP1;P1;durP2;ratioP2;P2;SDS_P1;SDS_P2;PMS_P1;PMS_P2;Temp;Humidity;BMP_temperature;BMP_pressure;BME280_temperature;BME280_humidity;BME280_pressure;Samples;Min_cycle;Max_cycle;Signal;HPM_P1;HPM_P2
2022/08/11 00:01:31;;;;;;;7.37;3.63;;;18.40;14.90;;;;;;4947207;28;20458;-68
2022/08/11 00:04:00;;;;;;;5.70;3.10;;;18.30;15.40;;;;;;4949612;29;20825;-68
2022/08/11 00:06:31;;;;;;;7.73;4.00;;;18.30;15.30;;;;;;4950113;29;20843;-68
2022/08/11 00:08:58;;;;;;;13.00;5.13;;;18.30;15.80;;;;;;4947978;29;20458;-68
2022/08/11 00:11:33;;;;;;;11.23;5.10;;;18.30;15.20;;;;;;4946410;29;20489;-68
2022/08/11 00:14:02;;;;;;;6.90;2.90;;;18.20;15.30;;;;;;4948196;29;20462;-67
2022/08/11 00:16:31;;;;;;;8.10;3.07;;;18.20;15.30;;;;;;4946491;28;20466;-68
2022/08/11 00:19:00;;;;;;;5.97;3.60;;;18.20;15.30;;;;;;4949085;29;20521;-68
2022/08/11 00:21:28;;;;;;;7.40;2.93;;;18.20;16.20;;;;;;4942591;28;20889;-68
2022/08/11 00:23:57;;;;;;;5.93;3.53;;;18.10;15.90;;;;;;4968695;28;20462;-68
2022/08/11 00:26:24;;;;;;;11.10;4.13;;;18.10;16.00;;;;;;4969455;28;21017;-68
2022/08/11 00:28:51;;;;;;;6.37;3.10;;;18.00;16.10;;;;;;4966390;28;20458;-68
2022/08/11 00:31:26;;;;;;;4.80;2.80;;;18.00;16.10;;;;;;4967575;28;20487;-68
2022/08/11 00:33:55;;;;;;;5.70;3.27;;;18.00;16.20;;;;;;4968162;28;20456;-68
2022/08/11 00:36:28;;;;;;;5.60;3.20;;;18.00;16.10;;;;;;4967502;28;20504;-68
2022/08/11 00:39:02;;;;;;;7.77;3.90;;;17.90;16.30;;;;;;4967967;28;21020;-68
2022/08/11 00:41:34;;;;;;;7.90;4.23;;;17.90;16.60;;;;;;4966307;28;20468;-67
2022/08/11 00:44:19;;;;;;;7.50;4.30;;;17.80;16.70;;;;;;4961271;28;20582;-68
2022/08/11 00:46:57;;;;;;;9.20;4.93;;;17.70;17.10;;;;;;4964806;28;20450;-68
2022/08/11 00:49:34;;;;;;;11.60;4.73;;;17.70;17.20;;;;;;4965375;28;20568;-67
2022/08/11 00:52:23;;;;;;;6.73;4.23;;;17.60;17.30;;;;;;4965104;28;20469;-67
2022/08/11 00:55:32;;;;;;;11.60;4.40;;;17.60;17.50;;;;;;4966204;28;20461;-68
2022/08/11 00:58:46;;;;;;;9.40;3.63;;;17.50;17.70;;;;;;4960988;28;20481;-67
2022/08/11 01:01:22;;;;;;;6.40;3.10;;;17.50;17.70;;;;;;4908659;29;20455;-67
2022/08/11 01:04:14;;;;;;;9.53;3.27;;;17.40;17.80;;;;;;4911610;29;20559;-68
2022/08/11 01:07:01;;;;;;;7.73;3.60;;;17.30;17.90;;;;;;4939331;28;20461;-67
2022/08/11 01:09:40;;;;;;;7.57;3.10;;;17.40;17.80;;;;;;4970157;28;20457;-68
2022/08/11 01:12:26;;;;;;;7.67;3.43;;;17.30;17.90;;;;;;4969930;28;20484;-67
2022/08/11 01:15:32;;;;;;;8.37;3.80;;;17.30;18.10;;;;;;4977486;28;20453;-67
2022/08/11 01:18:50;;;;;;;5.90;3.43;;;17.30;18.00;;;;;;4972288;28;20457;-67
2022/08/11 01:21:56;;;;;;;6.60;3.80;;;17.20;18.30;;;;;;4968876;28;20442;-67
2022/08/11 01:25:00;;;;;;;8.13;3.40;;;17.10;18.40;;;;;;4964301;28;20461;-67
2022/08/11 01:28:16;;;;;;;6.57;3.50;;;17.10;18.60;;;;;;4969330;28;20507;-67
2022/08/11 01:31:19;;;;;;;6.83;3.50;;;17.10;18.50;;;;;;4950757;28;20544;-67
2022/08/11 01:34:33;;;;;;;7.33;4.13;;;17.00;18.60;;;;;;4968490;28;20457;-67
2022/08/11 01:37:30;;;;;;;8.70;4.80;;;17.00;18.50;;;;;;4955299;28;20457;-67
2022/08/11 01:40:30;;;;;;;11.00;5.60;;;17.00;18.70;;;;;;4967346;28;20468;-67
2022/08/11 01:46:33;;;;;;;11.73;4.90;;;16.90;18.90;;;;;;4910689;28;20475;-68
2022/08/11 01:49:10;;;;;;;11.40;5.10;;;16.90;18.80;;;;;;4967206;28;20955;-68
2022/08/11 01:51:53;;;;;;;11.50;5.40;;;16.90;19.00;;;;;;4969394;28;20465;-68
2022/08/11 01:54:28;;;;;;;9.23;5.07;;;16.90;19.10;;;;;;4971080;28;20461;-68
2022/08/11 01:57:16;;;;;;;11.03;6.80;;;16.90;19.10;;;;;;4967732;28;20474;-67
2022/08/11 01:59:48;;;;;;;8.93;4.83;;;16.80;19.20;;;;;;4971223;28;20464;-68
2022/08/11 02:02:52;;;;;;;8.23;4.87;;;16.80;19.20;;;;;;4971968;28;20535;-67
2022/08/11 02:06:00;;;;;;;5.60;3.87;;;16.80;19.50;;;;;;4967152;28;20813;-68
2022/08/11 02:08:39;;;;;;;7.27;4.90;;;16.70;19.40;;;;;;4957691;28;20473;-68
2022/08/11 02:11:30;;;;;;;6.60;4.20;;;16.70;19.50;;;;;;4964157;28;20983;-68
2022/08/11 02:14:11;;;;;;;6.60;4.50;;;16.70;19.50;;;;;;4971168;28;20446;-67
2022/08/11 02:16:52;;;;;;;7.83;4.30;;;16.70;19.70;;;;;;4970459;28;20465;-67
2022/08/11 02:25:04;;;;;;;6.70;4.20;;;16.50;20.00;;;;;;4951843;28;20466;-68
2022/08/11 02:27:40;;;;;;;8.03;4.50;;;16.50;20.00;;;;;;4951452;28;20466;-67
2022/08/11 02:30:10;;;;;;;7.20;4.43;;;16.50;20.00;;;;;;4956382;28;20468;-67
2022/08/11 02:35:41;;;;;;;8.00;5.30;;;16.40;20.20;;;;;;4951844;28;20609;-67
2022/08/11 02:38:29;;;;;;;8.90;5.63;;;16.40;20.50;;;;;;4950143;28;20550;-67
2022/08/11 02:41:02;;;;;;;9.73;5.57;;;16.30;20.60;;;;;;4945645;28;20454;-68
2022/08/11 02:43:41;;;;;;;8.97;5.20;;;16.30;20.80;;;;;;4956715;28;20482;-68
2022/08/11 02:46:21;;;;;;;8.53;5.40;;;16.30;21.00;;;;;;4955620;28;21061;-68
2022/08/11 02:52:00;;;;;;;9.23;5.23;;;16.20;21.10;;;;;;4945851;28;20484;-68
2022/08/11 02:54:32;;;;;;;7.90;5.13;;;16.20;21.10;;;;;;4949975;28;20459;-68
2022/08/11 02:57:05;;;;;;;12.13;6.53;;;16.20;21.00;;;;;;4963593;28;20457;-68
2022/08/11 02:59:53;;;;;;;9.70;5.10;;;16.20;21.20;;;;;;4955173;28;20471;-68
2022/08/11 03:02:41;;;;;;;9.07;5.20;;;16.20;21.00;;;;;;4951490;28;20475;-68
2022/08/11 03:05:21;;;;;;;9.00;5.30;;;16.10;20.90;;;;;;4955947;28;20510;-68
2022/08/11 03:08:02;;;;;;;12.47;5.10;;;16.20;21.10;;;;;;4943962;28;20493;-68
2022/08/11 03:10:34;;;;;;;7.40;5.43;;;16.10;21.60;;;;;;4951110;28;20462;-67
2022/08/11 03:19:07;;;;;;;8.80;4.43;;;16.10;21.60;;;;;;4949996;28;20497;-68
2022/08/11 03:21:42;;;;;;;7.20;4.73;;;16.00;21.50;;;;;;4948666;28;21155;-68
2022/08/11 03:24:15;;;;;;;7.77;5.00;;;16.00;21.70;;;;;;4950113;28;20459;-67
2022/08/11 03:26:52;;;;;;;8.10;5.23;;;16.00;22.00;;;;;;4954237;28;20482;-67
2022/08/11 03:29:23;;;;;;;7.87;5.70;;;15.90;22.90;;;;;;4947431;28;20465;-68
2022/08/11 03:31:59;;;;;;;6.60;5.20;;;15.90;22.20;;;;;;4956093;28;20854;-68
2022/08/11 03:34:26;;;;;;;7.93;5.70;;;15.90;22.20;;;;;;4965339;28;20597;-66
2022/08/11 03:40:09;;;;;;;7.93;5.40;;;15.90;22.80;;;;;;4927656;28;20974;-67
2022/08/11 03:42:42;;;;;;;9.43;5.53;;;15.80;22.90;;;;;;4947313;28;20486;-67
2022/08/11 03:45:21;;;;;;;9.47;5.97;;;15.80;22.90;;;;;;4945710;28;20450;-66
2022/08/11 03:48:03;;;;;;;6.87;5.00;;;15.80;22.70;;;;;;4945014;28;20458;-67
2022/08/11 03:50:50;;;;;;;7.97;5.40;;;15.80;23.30;;;;;;4950122;28;20454;-66
2022/08/11 03:53:26;;;;;;;12.03;5.60;;;15.80;23.50;;;;;;4941993;28;20490;-68
2022/08/11 03:56:19;;;;;;;7.30;5.77;;;15.70;23.70;;;;;;4938301;28;20466;-67
2022/08/11 03:59:24;;;;;;;8.60;5.37;;;15.70;23.90;;;;;;4915594;28;20971;-68
2022/08/11 04:02:20;;;;;;;9.00;5.83;;;15.60;24.00;;;;;;4917005;28;20469;-65
2022/08/11 04:05:25;;;;;;;7.80;6.10;;;15.60;23.90;;;;;;4954878;28;20848;-65
2022/08/11 04:08:17;;;;;;;7.93;5.83;;;15.60;24.30;;;;;;4933697;28;20453;-64
2022/08/11 04:11:17;;;;;;;10.27;5.93;;;15.60;24.40;;;;;;4958816;28;20459;-65
2022/08/11 04:17:39;;;;;;;8.30;6.30;;;15.60;24.30;;;;;;4907807;28;20453;-65
2022/08/11 04:20:38;;;;;;;10.80;5.90;;;15.50;24.70;;;;;;4961702;28;20465;-65
2022/08/11 04:23:25;;;;;;;8.73;5.53;;;15.50;24.80;;;;;;4958819;28;20566;-65
2022/08/11 04:26:32;;;;;;;7.30;5.50;;;15.50;24.80;;;;;;4954353;28;20954;-65
2022/08/11 04:29:11;;;;;;;9.57;6.23;;;15.50;25.30;;;;;;4956961;28;20563;-65
2022/08/11 04:31:43;;;;;;;9.53;5.80;;;15.50;25.40;;;;;;4958787;28;20492;-65
2022/08/11 04:34:42;;;;;;;8.90;5.47;;;15.50;25.10;;;;;;4959458;28;20966;-64
2022/08/11 04:37:34;;;;;;;8.33;5.73;;;15.50;25.10;;;;;;4957835;28;20458;-66
2022/08/11 04:40:18;;;;;;;8.33;5.97;;;15.60;25.10;;;;;;4915591;28;20465;-66
2022/08/11 04:43:23;;;;;;;9.13;5.57;;;15.60;25.30;;;;;;4953548;28;20989;-66
2022/08/11 04:46:12;;;;;;;9.97;5.70;;;15.60;25.30;;;;;;4935100;28;20493;-64
2022/08/11 05:01:42;;;;;;;7.47;5.60;;;15.90;25.30;;;;;;4960902;28;20480;-65
2022/08/11 05:07:37;;;;;;;14.00;5.80;;;16.10;24.60;;;;;;4957000;28;20586;-65
2022/08/11 05:10:16;;;;;;;8.80;5.60;;;16.30;24.50;;;;;;4954033;28;20459;-65
2022/08/11 05:12:48;;;;;;;8.97;6.50;;;16.40;24.40;;;;;;4947997;28;20474;-65
2022/08/11 05:35:27;;;;;;;9.87;5.70;;;26.90;3.90;;;;;;4946114;29;20445;-65
2022/08/11 05:57:29;;;;;;;7.10;3.60;;;36.40;1.00;;;;;;4947291;28;20947;-66
2022/08/11 06:00:00;;;;;;;7.50;3.83;;;37.20;1.00;;;;;;4949371;29;20458;-66
2022/08/11 06:02:29;;;;;;;5.30;3.20;;;38.00;1.00;;;;;;4956898;23;20497;-66
2022/08/11 06:04:57;;;;;;;6.57;4.10;;;38.70;1.00;;;;;;4955901;28;21007;-66
2022/08/11 06:07:29;;;;;;;8.83;3.80;;;39.50;1.00;;;;;;4956438;28;20469;-66
2022/08/11 06:09:57;;;;;;;10.03;3.93;;;40.20;1.00;;;;;;4962807;28;20466;-66
2022/08/11 06:12:28;;;;;;;6.70;3.07;;;40.80;1.00;;;;;;4969185;28;20779;-66
2022/08/11 06:14:57;;;;;;;7.20;3.50;;;41.40;1.00;;;;;;4973928;28;20473;-66
2022/08/11 06:17:26;;;;;;;5.40;3.00;;;41.90;1.00;;;;;;4977535;28;20465;-66
2022/08/11 06:20:00;;;;;;;8.47;3.50;;;42.50;1.00;;;;;;4975436;28;20471;-66
2022/08/11 06:22:28;;;;;;;5.30;3.37;;;43.10;1.00;;;;;;4976647;28;21128;-66
2022/08/11 06:24:57;;;;;;;5.20;3.10;;;43.70;1.00;;;;;;4976624;28;20962;-66
2022/08/11 06:27:25;;;;;;;5.70;3.30;;;44.10;1.00;;;;;;4978889;28;20496;-66
2022/08/11 06:29:54;;;;;;;5.80;3.03;;;44.50;1.00;;;;;;4980874;28;20468;-66
2022/08/11 06:32:23;;;;;;;6.13;3.13;;;44.90;1.00;;;;;;4976975;28;20477;-65
2022/08/11 06:35:04;;;;;;;6.10;3.20;;;45.20;1.00;;;;;;4973468;28;22959;-64
2022/08/11 06:37:45;;;;;;;5.23;2.90;;;45.70;1.00;;;;;;4976723;28;20467;-64
2022/08/11 06:40:26;;;;;;;6.67;3.43;;;46.20;1.00;;;;;;4976539;28;20995;-64
2022/08/11 06:42:58;;;;;;;5.13;2.90;;;46.70;1.00;;;;;;4982199;28;20488;-65
2022/08/11 06:45:32;;;;;;;6.80;3.20;;;46.60;1.00;;;;;;4971993;28;20549;-65
2022/08/11 06:48:01;;;;;;;5.03;3.00;;;46.90;1.00;;;;;;4973250;28;20473;-65
2022/08/11 06:53:19;;;;;;;5.00;3.37;;;47.90;1.00;;;;;;4979205;28;21015;-65
2022/08/11 07:01:45;;;;;;;4.83;3.00;;;48.90;1.00;;;;;;4970589;28;20501;-65
2022/08/11 07:04:14;;;;;;;5.50;3.33;;;49.30;1.00;;;;;;4981291;28;21096;-65
2022/08/11 07:15:45;;;;;;;5.70;3.10;;;49.10;1.00;;;;;;4981654;28;20519;-65
2022/08/11 07:29:44;;;;;;;4.40;2.47;;;51.30;1.00;;;;;;4974416;28;20503;-64
2022/08/11 07:32:24;;;;;;;6.20;2.77;;;50.70;1.00;;;;;;4979147;28;20488;-64
2022/08/11 07:34:56;;;;;;;5.50;2.80;;;50.30;1.00;;;;;;4980288;28;20461;-63
2022/08/11 07:37:25;;;;;;;7.20;2.77;;;49.70;1.00;;;;;;4980512;28;20988;-64
2022/08/11 07:39:54;;;;;;;4.90;2.70;;;49.80;1.00;;;;;;4970420;28;20457;-65
2022/08/11 07:42:26;;;;;;;6.20;2.90;;;50.30;1.00;;;;;;4970748;28;20558;-65
2022/08/11 07:53:11;;;;;;;5.40;2.73;;;51.10;1.00;;;;;;4970137;28;20488;-65
2022/08/11 07:55:41;;;;;;;4.70;2.93;;;51.50;1.00;;;;;;4976318;28;20466;-65
2022/08/11 08:17:51;;;;;;;5.10;2.80;;;51.50;1.00;;;;;;4969553;28;20496;-65
2022/08/11 08:20:21;;;;;;;4.90;2.80;;;51.20;1.00;;;;;;4970982;28;20471;-65
2022/08/11 08:22:55;;;;;;;4.87;2.70;;;51.80;1.00;;;;;;4977323;28;20469;-65
2022/08/11 08:25:23;;;;;;;5.43;2.73;;;52.10;1.00;;;;;;4975142;28;20461;-66
2022/08/11 08:27:53;;;;;;;4.60;2.53;;;52.30;1.00;;;;;;4971693;28;20473;-65
2022/08/11 08:33:05;;;;;;;7.10;2.73;;;51.70;1.00;;;;;;4971674;28;20480;-66
2022/08/11 08:35:32;;;;;;;4.30;2.67;;;50.90;1.00;;;;;;4981568;28;20457;-65
2022/08/11 08:37:59;;;;;;;6.43;2.40;;;50.50;1.00;;;;;;4979366;28;20469;-65
2022/08/11 08:40:27;;;;;;;5.47;2.70;;;50.40;1.00;;;;;;4974967;28;20553;-65
2022/08/11 08:42:58;;;;;;;4.30;2.43;;;50.20;1.00;;;;;;4979756;28;20468;-65
2022/08/11 08:45:26;;;;;;;6.57;2.57;;;51.00;1.00;;;;;;4974712;28;20549;-65
2022/08/11 08:47:58;;;;;;;5.10;2.80;;;51.60;1.00;;;;;;4974139;28;20734;-66
2022/08/11 08:51:33;;;;;;;4.00;2.43;;;51.50;1.00;;;;;;4974418;28;20463;-65
2022/08/11 08:53:21;;;;;;;4.20;2.50;;;51.70;1.00;;;;;;4974012;28;20565;-65
2022/08/11 08:55:50;;;;;;;4.77;2.20;;;51.90;1.00;;;;;;4969555;28;20496;-65
2022/08/11 08:58:20;;;;;;;5.37;2.80;;;52.50;1.00;;;;;;4974337;28;20460;-65
2022/08/11 09:00:51;;;;;;;5.70;2.37;;;53.00;1.00;;;;;;4972183;28;20461;-65
2022/08/11 09:03:18;;;;;;;6.73;2.77;;;53.00;1.00;;;;;;4977140;28;20452;-65
2022/08/11 09:05:47;;;;;;;5.13;2.23;;;53.00;1.00;;;;;;4968902;28;20465;-65
2022/08/11 09:08:17;;;;;;;5.63;2.30;;;52.90;1.00;;;;;;4968311;28;20457;-66
2022/08/11 09:10:46;;;;;;;5.43;2.40;;;53.10;1.00;;;;;;4971031;28;20460;-65
2022/08/11 09:13:15;;;;;;;5.60;2.63;;;52.40;1.00;;;;;;4976380;28;20488;-65
2022/08/11 09:15:45;;;;;;;6.97;2.40;;;51.80;1.00;;;;;;4976433;28;20468;-65
2022/08/11 09:18:13;;;;;;;6.60;2.80;;;51.90;1.00;;;;;;4971811;28;20499;-65
2022/08/11 09:20:40;;;;;;;4.07;2.03;;;52.40;1.00;;;;;;4982368;28;20472;-64
2022/08/11 09:28:42;;;;;;;4.50;2.00;;;52.40;1.00;;;;;;4980159;28;20463;-64
2022/08/11 09:31:12;;;;;;;6.87;2.60;;;53.10;1.00;;;;;;4976726;28;20485;-64
2022/08/11 09:33:40;;;;;;;7.10;2.60;;;53.80;1.00;;;;;;4981551;28;21082;-65
2022/08/11 09:41:36;;;;;;;5.30;2.20;;;54.80;1.00;;;;;;4985436;28;20523;-64
2022/08/11 09:46:50;;;;;;;8.17;2.57;;;54.50;1.00;;;;;;4972851;28;20455;-64
2022/08/11 09:49:20;;;;;;;4.80;2.03;;;53.50;1.00;;;;;;4986563;28;20463;-64
2022/08/11 09:51:49;;;;;;;4.03;2.27;;;52.50;1.00;;;;;;4980409;28;21067;-64
2022/08/11 09:54:16;;;;;;;4.70;2.40;;;51.70;1.00;;;;;;4978720;28;20465;-64
2022/08/11 09:59:28;;;;;;;3.80;2.10;;;50.30;1.00;;;;;;4980680;28;20539;-64
2022/08/11 10:01:59;;;;;;;4.57;2.40;;;50.00;1.00;;;;;;4973545;28;21060;-63
2022/08/11 10:04:33;;;;;;;4.80;1.97;;;49.80;1.00;;;;;;4982940;28;20457;-64
2022/08/11 10:07:02;;;;;;;4.33;2.00;;;50.30;1.00;;;;;;4979044;28;22364;-64
2022/08/11 10:09:34;;;;;;;3.70;2.07;;;50.60;1.00;;;;;;4976262;28;20526;-65
2022/08/11 10:12:02;;;;;;;5.60;2.00;;;50.70;1.00;;;;;;4974602;28;20488;-65
2022/08/11 10:17:18;;;;;;;4.87;2.70;;;49.70;1.00;;;;;;4948849;28;20978;-64
2022/08/11 10:19:48;;;;;;;7.83;2.80;;;49.60;1.00;;;;;;4974003;28;20472;-64
2022/08/11 10:27:48;;;;;;;3.80;2.20;;;47.00;1.00;;;;;;4971179;28;20515;-64
2022/08/11 10:35:47;;;;;;;4.63;2.30;;;41.10;1.00;;;;;;4981272;28;20603;-65
2022/08/11 10:38:15;;;;;;;6.17;2.63;;;39.70;1.00;;;;;;4977451;28;20476;-63
2022/08/11 10:43:01;;;;;;;5.53;2.77;;;38.00;1.00;;;;;;4976302;28;20466;-64
2022/08/11 10:43:33;;;;;;;6.33;2.50;;;36.70;1.00;;;;;;4979007;28;20457;-63
2022/08/11 10:48:46;;;;;;;4.93;2.50;;;35.00;1.00;;;;;;4978621;28;20680;-63
2022/08/11 10:51:13;;;;;;;7.00;2.57;;;34.30;1.00;;;;;;4983894;28;20489;-63
2022/08/11 10:59:14;;;;;;;5.20;2.77;;;33.00;1.00;;;;;;4979428;28;20494;-63
2022/08/11 11:01:43;;;;;;;4.73;2.40;;;32.60;1.00;;;;;;4971000;28;20503;-64
2022/08/11 11:04:15;;;;;;;6.90;3.23;;;32.20;1.00;;;;;;4973423;28;20519;-63
2022/08/11 11:06:50;;;;;;;4.37;2.23;;;31.60;1.00;;;;;;4982533;28;20457;-62
2022/08/11 11:09:20;;;;;;;6.30;3.10;;;31.00;1.00;;;;;;4985108;28;20464;-63
2022/08/11 11:20:19;;;;;;;5.20;2.80;;;29.70;1.00;;;;;;4981872;28;20846;-62
2022/08/11 11:22:51;;;;;;;5.23;2.50;;;29.50;1.00;;;;;;4975685;28;20468;-62
2022/08/11 11:25:30;;;;;;;4.80;2.50;;;29.40;1.00;;;;;;4984592;28;20457;-63
2022/08/11 11:28:38;;;;;;;6.50;2.87;;;29.20;1.00;;;;;;4975911;28;20467;-63
2022/08/11 11:31:13;;;;;;;6.20;2.63;;;29.00;1.00;;;;;;4973137;28;20480;-63
2022/08/11 11:34:11;;;;;;;4.37;2.50;;;28.90;1.00;;;;;;4973330;28;20965;-63
2022/08/11 11:36:47;;;;;;;7.63;3.30;;;28.70;1.00;;;;;;4976365;28;21071;-63
2022/08/11 11:39:16;;;;;;;4.97;2.70;;;28.60;1.00;;;;;;4979239;28;20468;-62
2022/08/11 11:41:44;;;;;;;5.53;2.50;;;28.60;1.00;;;;;;4976358;28;21159;-63
2022/08/11 11:44:12;;;;;;;5.90;2.30;;;28.60;1.00;;;;;;4979747;28;20473;-63
2022/08/11 11:46:40;;;;;;;5.50;2.77;;;28.60;1.00;;;;;;4977030;28;20469;-63
2022/08/11 11:49:08;;;;;;;5.20;3.20;;;28.60;1.00;;;;;;4977431;28;20512;-63
2022/08/11 11:51:37;;;;;;;4.60;2.70;;;28.60;1.00;;;;;;4974285;28;21062;-63
2022/08/11 11:54:06;;;;;;;5.20;2.50;;;28.60;1.00;;;;;;4975940;28;20477;-63
2022/08/11 11:56:33;;;;;;;4.40;2.20;;;28.50;1.00;;;;;;4979448;28;20468;-63
2022/08/11 12:01:46;;;;;;;5.27;2.50;;;28.30;1.00;;;;;;4980528;28;20538;-63
2022/08/11 12:04:15;;;;;;;5.00;2.87;;;28.30;1.00;;;;;;4998461;28;20463;-62
2022/08/11 12:06:42;;;;;;;6.40;2.63;;;28.30;1.00;;;;;;4993775;28;20451;-63
2022/08/11 12:09:14;;;;;;;5.40;3.10;;;28.30;1.00;;;;;;5001189;28;20930;-63
2022/08/11 12:14:27;;;;;;;5.50;2.80;;;28.40;1.00;;;;;;4997177;28;20571;-62
2022/08/11 12:16:56;;;;;;;4.70;2.80;;;28.40;1.00;;;;;;4999196;28;20547;-63
2022/08/11 12:19:27;;;;;;;5.93;2.27;;;28.40;1.00;;;;;;4997409;28;20456;-62
2022/08/11 12:27:27;;;;;;;4.17;2.20;;;28.20;1.00;;;;;;4990232;28;20560;-63
2022/08/11 12:29:57;;;;;;;4.77;2.53;;;28.10;1.00;;;;;;5003171;28;20456;-63
2022/08/11 12:32:27;;;;;;;4.30;2.37;;;28.00;1.00;;;;;;4991334;28;20483;-63
2022/08/11 12:34:55;;;;;;;5.20;2.57;;;27.90;1.00;;;;;;4993870;28;20459;-62
2022/08/11 12:37:28;;;;;;;5.80;2.50;;;27.90;1.00;;;;;;5000267;28;20503;-62
2022/08/11 12:45:31;;;;;;;9.03;3.10;;;27.90;1.00;;;;;;4990433;28;20499;-63
2022/08/11 12:53:55;;;;;;;6.37;3.07;;;28.10;1.00;;;;;;4900594;29;20512;-63
2022/08/11 13:04:52;;;;;;;5.90;2.90;;;27.90;1.00;;;;;;4973496;28;20888;-63
2022/08/11 13:07:20;;;;;;;4.67;2.50;;;27.90;1.00;;;;;;4992118;28;20457;-63
2022/08/11 13:09:47;;;;;;;6.10;2.67;;;27.90;1.00;;;;;;4975904;28;20458;-63
2022/08/11 13:15:02;;;;;;;6.23;2.77;;;27.80;1.00;;;;;;4987397;28;20448;-63
2022/08/11 13:17:29;;;;;;;4.90;2.37;;;27.70;1.00;;;;;;4983246;28;20457;-63
2022/08/11 13:19:58;;;;;;;10.33;2.97;;;27.70;1.00;;;;;;4977621;28;20581;-63
2022/08/11 13:22:27;;;;;;;5.20;3.10;;;27.60;1.00;;;;;;4974280;28;20477;-63
2022/08/11 13:24:55;;;;;;;7.23;2.40;;;27.70;1.00;;;;;;4978676;28;20461;-63
2022/08/11 13:27:24;;;;;;;5.77;3.03;;;27.80;1.00;;;;;;4978207;28;20465;-62
2022/08/11 13:31:09;;;;;;;8.30;3.17;;;27.90;1.00;;;;;;4986485;28;20464;-63
2022/08/11 13:32:41;;;;;;;5.43;2.50;;;28.00;1.00;;;;;;4988570;28;20584;-63
2022/08/11 13:35:09;;;;;;;5.43;2.77;;;28.10;1.00;;;;;;4978606;28;20457;-63
2022/08/11 13:37:36;;;;;;;5.40;2.40;;;28.00;1.00;;;;;;4981482;28;20886;-63
2022/08/11 13:40:03;;;;;;;6.17;2.97;;;28.00;1.00;;;;;;4983635;28;20453;-63
2022/08/11 13:42:32;;;;;;;4.63;2.70;;;28.00;1.00;;;;;;4980414;28;20579;-62
2022/08/11 13:44:59;;;;;;;5.30;2.43;;;27.90;1.00;;;;;;4977628;28;20457;-63
2022/08/11 13:47:27;;;;;;;5.20;2.87;;;28.00;1.00;;;;;;4983721;28;20457;-63
2022/08/11 13:49:55;;;;;;;4.57;2.67;;;28.10;1.00;;;;;;4981167;28;20461;-63
2022/08/11 13:52:23;;;;;;;6.93;2.77;;;28.10;1.00;;;;;;4983384;28;20477;-63
2022/08/11 13:54:52;;;;;;;4.13;2.57;;;28.10;1.00;;;;;;4980748;28;20484;-63
2022/08/11 13:57:19;;;;;;;4.80;2.23;;;28.10;1.00;;;;;;4980790;28;20516;-63
2022/08/11 13:59:53;;;;;;;4.83;2.40;;;28.20;1.00;;;;;;4980892;28;20461;-63
2022/08/11 14:02:26;;;;;;;5.53;2.23;;;28.20;1.00;;;;;;4981779;28;20497;-63
2022/08/11 14:04:55;;;;;;;7.57;2.83;;;28.20;1.00;;;;;;4979373;28;20544;-63
2022/08/11 14:07:34;;;;;;;5.80;2.43;;;28.20;1.00;;;;;;4983337;28;20969;-62
2022/08/11 14:10:02;;;;;;;5.60;2.80;;;28.20;1.00;;;;;;4983575;28;20461;-63
2022/08/11 14:15:21;;;;;;;6.03;2.70;;;28.30;1.00;;;;;;4983648;28;20475;-66
2022/08/11 14:17:53;;;;;;;7.70;2.50;;;28.30;1.00;;;;;;4975224;28;20548;-65
2022/08/11 14:20:21;;;;;;;7.33;2.40;;;28.30;1.00;;;;;;4982580;28;20463;-61
2022/08/11 14:22:50;;;;;;;6.27;2.33;;;28.30;1.00;;;;;;4981197;28;20480;-63
2022/08/11 14:25:16;;;;;;;4.90;2.53;;;28.20;1.00;;;;;;4979972;28;20462;-63
2022/08/11 14:27:47;;;;;;;4.27;2.33;;;28.20;1.00;;;;;;4973292;28;20465;-61
2022/08/11 14:32:57;;;;;;;4.20;2.43;;;28.10;1.00;;;;;;4975809;28;20887;-64
2022/08/11 14:35:25;;;;;;;5.50;2.97;;;28.10;1.00;;;;;;4979763;28;20465;-66
2022/08/11 14:37:52;;;;;;;9.03;2.77;;;28.10;1.00;;;;;;4974287;28;20483;-65
2022/08/11 14:48:49;;;;;;;4.70;2.50;;;28.10;1.00;;;;;;5041040;28;20584;-73
2022/08/11 14:51:16;;;;;;;10.20;3.10;;;28.10;1.00;;;;;;5045297;28;20961;-73
2022/08/11 14:53:43;;;;;;;6.30;2.57;;;28.10;1.00;;;;;;5039500;28;20482;-75
2022/08/11 14:58:52;;;;;;;7.17;2.33;;;28.10;1.00;;;;;;5011769;28;20471;-74
2022/08/11 15:04:04;;;;;;;5.47;2.77;;;28.10;1.00;;;;;;5042929;28;21067;-66
2022/08/11 15:06:32;;;;;;;5.47;2.60;;;28.10;1.00;;;;;;5041313;28;20469;-76
2022/08/11 15:08:59;;;;;;;5.03;2.40;;;28.10;1.00;;;;;;5039188;22;21004;-74
2022/08/11 15:17:06;;;;;;;8.23;3.07;;;28.10;1.00;;;;;;5032847;28;20473;-70
2022/08/11 15:17:07;;;;;;;4.77;2.63;;;28.10;1.00;;;;;;5026102;28;20522;-70
2022/08/11 15:19:36;;;;;;;4.70;2.50;;;28.00;1.00;;;;;;5027815;28;20533;-71
2022/08/11 15:24:47;;;;;;;7.00;2.60;;;27.90;1.00;;;;;;5034010;28;20453;-70
2022/08/11 15:38:23;;;;;;;5.47;2.50;;;27.90;1.00;;;;;;5031045;28;20473;-70
2022/08/11 15:46:31;;;;;;;4.30;2.20;;;27.80;1.00;;;;;;5035719;28;20972;-71
2022/08/11 15:48:59;;;;;;;7.63;2.50;;;27.80;1.00;;;;;;5033800;28;20466;-70
2022/08/11 15:51:36;;;;;;;6.97;3.00;;;27.80;1.00;;;;;;5024069;28;21110;-70
2022/08/11 15:54:07;;;;;;;4.43;2.10;;;27.80;1.00;;;;;;5030007;28;20483;-70
2022/08/11 15:56:38;;;;;;;5.30;2.50;;;27.70;1.00;;;;;;5013545;28;20470;-70
2022/08/11 16:04:54;;;;;;;6.13;2.40;;;27.70;1.00;;;;;;5024571;28;20500;-72
2022/08/11 16:07:25;;;;;;;7.40;2.60;;;27.70;1.00;;;;;;5026740;28;20553;-72
2022/08/11 16:09:57;;;;;;;5.20;2.40;;;27.60;1.00;;;;;;5025341;28;20466;-69
2022/08/11 16:12:28;;;;;;;4.10;2.30;;;27.60;1.00;;;;;;5018903;28;21073;-70
2022/08/11 16:17:46;;;;;;;7.53;2.60;;;27.70;1.00;;;;;;5025012;28;20451;-71
2022/08/11 16:20:16;;;;;;;8.50;2.70;;;27.60;1.00;;;;;;5025317;28;20478;-72
2022/08/11 16:22:46;;;;;;;4.20;2.10;;;27.60;1.00;;;;;;5022352;28;20912;-70
2022/08/11 16:25:20;;;;;;;5.87;2.77;;;27.60;1.00;;;;;;5021142;28;20465;-71
2022/08/11 16:27:51;;;;;;;6.33;2.43;;;27.60;1.00;;;;;;5022343;28;20456;-70
2022/08/11 16:30:19;;;;;;;6.60;2.53;;;27.50;1.00;;;;;;5026009;28;20487;-71
2022/08/11 16:32:51;;;;;;;5.00;2.27;;;27.50;1.00;;;;;;5023894;28;21022;-70
2022/08/11 16:40:53;;;;;;;5.80;1.90;;;27.50;1.00;;;;;;5018964;28;20539;-70
2022/08/11 16:49:00;;;;;;;5.83;2.20;;;27.30;1.00;;;;;;4984700;28;21001;-71
2022/08/11 16:51:27;;;;;;;7.63;2.17;;;27.30;1.00;;;;;;5004012;28;20843;-70
2022/08/11 16:53:54;;;;;;;4.57;2.27;;;27.30;1.00;;;;;;5000949;28;20572;-70
2022/08/11 16:56:25;;;;;;;5.57;2.67;;;27.20;1.00;;;;;;5003747;28;20544;-71
2022/08/11 17:01:43;;;;;;;4.03;1.97;;;27.20;1.00;;;;;;5014025;28;21064;-70
2022/08/11 17:18:38;;;;;;;4.40;1.67;;;27.00;1.00;;;;;;5015989;28;20478;-69
2022/08/11 17:21:03;;;;;;;5.97;2.57;;;27.00;1.00;;;;;;5020748;28;20509;-70
2022/08/11 17:26:26;;;;;;;5.73;2.40;;;26.90;1.00;;;;;;5021045;28;20459;-70
2022/08/11 17:28:59;;;;;;;5.17;1.97;;;26.80;1.00;;;;;;5024364;28;20503;-70
2022/08/11 17:37:00;;;;;;;4.90;2.00;;;26.70;1.00;;;;;;5018413;28;20582;-69
2022/08/11 17:39:31;;;;;;;4.70;1.80;;;26.60;1.00;;;;;;5024251;28;21048;-70
2022/08/11 17:50:17;;;;;;;6.60;2.27;;;26.40;1.00;;;;;;5021097;28;20454;-70
2022/08/11 18:01:03;;;;;;;6.63;2.30;;;26.10;1.00;;;;;;5020942;28;20563;-69
2022/08/11 18:03:38;;;;;;;4.70;1.90;;;26.10;1.00;;;;;;5023652;28;20490;-67
2022/08/11 18:06:08;;;;;;;4.10;1.93;;;26.00;1.00;;;;;;5021324;28;20461;-67
